Time;durP1;ratioP1;P1;durP2;ratioP2;P2;SDS_P1;SDS_P2;PMS_P1;PMS_P2;Temp;Humidity;BMP_temperature;BMP_pressure;BME280_temperature;BME280_humidity;BME280_pressure;Samples;Min_cycle;Max_cycle;Signal;HPM_P1;HPM_P2
2022/12/08 00:00:38;;;;;;;6.35;3.28;;;;;;;4.83;50.98;100798.31;7393051;19;19995;-61
2022/12/08 00:03:04;;;;;;;10.13;3.15;;;;;;;4.73;51.06;100793.13;7392733;19;20009;-62
2022/12/08 00:10:59;;;;;;;7.93;2.80;;;;;;;4.77;50.89;100791.41;7394019;19;19919;-62
2022/12/08 00:13:24;;;;;;;7.25;2.75;;;;;;;4.80;50.81;100778.06;7392161;19;20029;-62
2022/12/08 00:15:50;;;;;;;8.23;3.00;;;;;;;4.83;50.73;100782.88;7392531;19;20007;-60
2022/12/08 00:18:16;;;;;;;8.13;2.95;;;;;;;4.75;50.91;100780.88;7391707;19;20458;-61
2022/12/08 00:20:41;;;;;;;7.53;2.72;;;;;;;4.83;50.69;100769.34;7393845;19;20107;-61
2022/12/08 00:23:07;;;;;;;9.60;3.00;;;;;;;4.87;50.65;100772.25;7390708;19;20007;-62
2022/12/08 00:25:36;;;;;;;10.10;2.92;;;;;;;4.86;50.61;100767.16;7393003;19;19998;-61
2022/12/08 00:28:01;;;;;;;7.15;2.90;;;;;;;4.80;50.75;100772.66;7393974;19;20071;-62
2022/12/08 00:30:27;;;;;;;8.18;2.85;;;;;;;4.76;50.92;100773.59;7393342;19;20348;-62
2022/12/08 00:32:53;;;;;;;6.88;2.70;;;;;;;4.79;50.79;100775.69;7392238;19;20034;-61
2022/12/08 00:35:18;;;;;;;8.90;2.83;;;;;;;4.85;50.76;100769.06;7392597;19;19998;-61
2022/12/08 00:37:44;;;;;;;9.43;2.70;;;;;;;4.83;50.64;100772.06;7393818;19;20503;-61
2022/12/08 00:40:10;;;;;;;9.38;2.88;;;;;;;4.85;50.77;100758.22;7392396;19;20001;-62
2022/12/08 00:42:36;;;;;;;7.28;3.03;;;;;;;4.86;50.66;100748.25;7390929;19;20030;-63
2022/12/08 00:45:01;;;;;;;9.95;2.78;;;;;;;4.88;50.62;100752.22;7391968;19;20002;-63
2022/12/08 00:47:27;;;;;;;7.78;2.92;;;;;;;4.82;50.64;100748.03;7393540;19;20831;-62
2022/12/08 00:49:53;;;;;;;6.63;2.65;;;;;;;4.78;50.82;100731.59;7392330;19;20010;-63
2022/12/08 00:52:19;;;;;;;8.90;3.28;;;;;;;4.84;50.87;100735.03;7392828;19;20479;-62
2022/12/08 00:54:45;;;;;;;7.15;2.88;;;;;;;4.85;50.52;100738.50;7391320;19;20021;-63
2022/12/08 00:57:10;;;;;;;8.68;2.58;;;;;;;4.92;50.68;100737.00;7392979;19;20037;-62
2022/12/08 00:59:36;;;;;;;8.02;2.92;;;;;;;4.85;50.76;100736.59;7392115;19;19995;-62
2022/12/08 01:02:02;;;;;;;11.75;3.83;;;;;;;4.87;50.63;100739.78;7390535;19;20015;-62
2022/12/08 01:04:28;;;;;;;7.93;2.95;;;;;;;5.00;50.54;100738.97;7392998;19;20489;-62
2022/12/08 01:06:53;;;;;;;6.40;3.00;;;;;;;5.06;49.95;100747.00;7389256;19;20018;-61
2022/12/08 01:09:19;;;;;;;8.25;3.22;;;;;;;5.00;50.32;100743.59;7392457;19;20007;-62
2022/12/08 01:11:45;;;;;;;7.47;3.35;;;;;;;4.92;50.40;100752.41;7391449;19;20002;-61
2022/12/08 01:14:12;;;;;;;10.57;3.55;;;;;;;5.01;50.31;100750.59;7392179;19;20012;-63
2022/12/08 01:16:40;;;;;;;12.30;3.10;;;;;;;5.00;50.33;100754.41;7389246;19;20015;-62
2022/12/08 01:19:06;;;;;;;9.90;2.78;;;;;;;5.04;50.36;100750.00;7392360;19;20007;-62
2022/12/08 01:21:31;;;;;;;6.68;2.50;;;;;;;4.95;50.49;100741.00;7391452;19;20323;-62
2022/12/08 01:23:59;;;;;;;6.55;2.45;;;;;;;5.08;50.23;100740.16;7389864;19;20021;-62
2022/12/08 01:26:25;;;;;;;8.13;2.72;;;;;;;5.00;50.32;100743.59;7391617;19;20017;-62
2022/12/08 01:28:51;;;;;;;8.52;2.55;;;;;;;5.01;50.46;100745.19;7391648;19;19991;-62
2022/12/08 01:31:19;;;;;;;7.68;2.67;;;;;;;5.05;50.29;100748.88;7390935;19;19999;-62
2022/12/08 01:33:45;;;;;;;5.07;2.45;;;;;;;4.97;50.69;100749.59;7389894;19;20002;-62
2022/12/08 01:36:32;;;;;;;6.15;2.30;;;;;;;5.05;50.37;100740.75;7389225;19;20450;-62
2022/12/08 01:39:00;;;;;;;7.97;1.98;;;;;;;5.07;50.28;100743.16;7391024;19;20006;-62
2022/12/08 01:41:29;;;;;;;7.03;1.98;;;;;;;5.12;50.18;100734.94;7391805;19;19987;-62
2022/12/08 01:43:55;;;;;;;7.65;2.13;;;;;;;5.10;50.24;100735.22;7388805;19;20661;-61
2022/12/08 01:46:22;;;;;;;6.38;2.05;;;;;;;5.12;50.29;100743.03;7390468;19;20002;-62
2022/12/08 01:48:50;;;;;;;10.25;2.45;;;;;;;5.13;50.17;100737.34;7389700;19;20005;-62
2022/12/08 01:51:16;;;;;;;5.65;2.00;;;;;;;5.23;50.14;100735.50;7389419;19;19994;-61
2022/12/08 01:53:42;;;;;;;2.50;1.50;;;;;;;5.20;50.04;100737.69;7388858;19;20017;-62
2022/12/08 01:56:14;;;;;;;6.85;2.08;;;;;;;5.03;50.45;100732.16;7388808;19;20021;-61
2022/12/08 01:58:47;;;;;;;6.60;1.98;;;;;;;5.18;50.19;100733.72;7390360;19;20002;-62
2022/12/08 02:01:13;;;;;;;6.50;1.75;;;;;;;5.18;50.34;100729.09;7390831;19;20014;-63
2022/12/08 02:03:50;;;;;;;6.43;2.10;;;;;;;5.20;50.24;100731.50;7388363;19;19998;-62
2022/12/08 02:06:18;;;;;;;7.20;1.95;;;;;;;5.13;50.38;100731.91;7390200;19;20002;-61
2022/12/08 02:08:46;;;;;;;8.00;1.90;;;;;;;5.25;50.17;100728.66;7389788;19;20006;-62
2022/12/08 02:11:12;;;;;;;7.28;2.15;;;;;;;5.32;50.10;100728.28;7390584;19;19999;-62
2022/12/08 02:13:40;;;;;;;7.05;2.10;;;;;;;5.13;50.67;100723.81;7388884;19;20019;-62
2022/12/08 02:16:43;;;;;;;6.38;2.08;;;;;;;5.14;50.58;100722.72;7386923;19;20473;-62
2022/12/08 02:19:49;;;;;;;7.57;2.30;;;;;;;5.15;50.37;100713.47;7389967;19;19998;-61
2022/12/08 02:22:30;;;;;;;7.95;2.63;;;;;;;5.08;50.48;100710.41;7391438;19;20002;-61
2022/12/08 02:25:10;;;;;;;10.05;2.28;;;;;;;5.19;50.46;100708.25;7396556;19;20485;-62
2022/12/08 02:28:03;;;;;;;7.80;2.20;;;;;;;5.20;50.55;100707.94;7398473;19;19995;-61
2022/12/08 02:30:34;;;;;;;5.82;2.08;;;;;;;5.24;50.43;100704.63;7397155;19;20015;-61
2022/12/08 02:33:26;;;;;;;6.95;2.15;;;;;;;5.19;50.67;100698.22;7395622;19;20016;-61
2022/12/08 02:36:10;;;;;;;6.55;2.08;;;;;;;5.20;50.90;100699.81;7393860;19;20016;-61
2022/12/08 02:38:43;;;;;;;9.05;2.28;;;;;;;5.06;51.15;100704.50;7396953;19;20003;-61
2022/12/08 02:41:31;;;;;;;5.73;1.90;;;;;;;4.85;51.50;100690.63;7396389;19;20074;-62
2022/12/08 02:44:19;;;;;;;5.70;2.10;;;;;;;5.07;51.14;100697.97;7394346;19;19998;-62
2022/12/08 02:46:55;;;;;;;10.45;2.83;;;;;;;5.06;51.18;100688.25;7393020;19;20473;-61
2022/12/08 02:49:20;;;;;;;6.53;2.15;;;;;;;5.18;50.90;100680.38;7396470;19;20018;-61
2022/12/08 02:51:46;;;;;;;10.23;2.40;;;;;;;5.16;51.07;100684.53;7395872;19;20398;-60
2022/12/08 02:54:13;;;;;;;7.28;2.33;;;;;;;5.12;51.21;100681.63;7394736;19;20007;-62
2022/12/08 02:57:11;;;;;;;8.95;3.00;;;;;;;5.18;51.40;100680.38;7393785;19;20003;-61
2022/12/08 03:00:05;;;;;;;9.35;3.28;;;;;;;5.25;50.99;100679.16;7396798;19;20007;-62
2022/12/08 03:03:04;;;;;;;10.82;3.92;;;;;;;5.30;50.95;100676.34;7394681;19;20346;-62
2022/12/08 03:05:59;;;;;;;8.20;2.95;;;;;;;5.33;50.78;100671.13;7395675;19;20002;-62
2022/12/08 03:08:34;;;;;;;9.02;2.60;;;;;;;5.33;50.85;100673.03;7395799;19;20016;-62
2022/12/08 03:11:07;;;;;;;10.60;2.65;;;;;;;5.35;50.79;100662.69;7396125;19;20021;-62
2022/12/08 03:13:40;;;;;;;5.43;2.20;;;;;;;5.27;51.02;100661.50;7394078;19;20054;-62
2022/12/08 03:16:11;;;;;;;7.85;2.60;;;;;;;5.36;50.92;100650.78;7392425;19;20003;-61
2022/12/08 03:18:48;;;;;;;6.28;2.10;;;;;;;5.38;50.65;100653.97;7395333;19;20094;-62
2022/12/08 03:21:17;;;;;;;4.88;2.05;;;;;;;5.31;50.86;100648.97;7396252;19;20010;-61
2022/12/08 03:23:45;;;;;;;5.88;2.00;;;;;;;5.39;50.74;100647.47;7392941;19;20003;-62
2022/12/08 03:26:20;;;;;;;8.25;2.53;;;;;;;5.36;50.72;100645.38;7394486;19;20066;-62
2022/12/08 03:28:46;;;;;;;8.43;2.33;;;;;;;5.38;50.92;100640.44;7394825;19;20350;-62
2022/12/08 03:31:14;;;;;;;7.78;2.30;;;;;;;5.34;50.92;100650.25;7394294;19;20006;-61
2022/12/08 03:33:44;;;;;;;6.32;2.08;;;;;;;5.38;50.80;100640.44;7392871;19;20011;-61
2022/12/08 03:36:11;;;;;;;7.68;1.83;;;;;;;5.32;51.06;100641.66;7392232;19;20078;-61
2022/12/08 03:38:39;;;;;;;5.90;2.10;;;;;;;5.21;51.25;100641.09;7393869;19;20054;-62
2022/12/08 03:41:17;;;;;;;4.60;2.17;;;;;;;5.33;51.10;100643.28;7394496;19;19998;-62
2022/12/08 03:43:51;;;;;;;3.88;1.77;;;;;;;5.40;50.82;100643.63;7393555;19;20068;-61
2022/12/08 03:46:22;;;;;;;6.20;1.70;;;;;;;5.32;50.92;100637.06;7393604;19;20007;-60
2022/12/08 03:48:48;;;;;;;5.45;1.73;;;;;;;5.20;51.27;100644.91;7394981;19;20033;-61
2022/12/08 03:51:15;;;;;;;7.63;1.92;;;;;;;5.26;51.01;100632.06;7393820;19;20462;-61
2022/12/08 03:53:41;;;;;;;4.80;1.95;;;;;;;5.11;51.25;100625.13;7390812;19;19995;-61
2022/12/08 03:56:19;;;;;;;5.55;1.90;;;;;;;5.15;51.04;100626.88;7391920;19;20029;-61
2022/12/08 03:58:44;;;;;;;4.50;1.58;;;;;;;5.18;51.00;100615.44;7394867;19;20002;-62
2022/12/08 04:01:11;;;;;;;2.78;1.50;;;;;;;5.17;51.01;100616.56;7392987;19;19998;-62
2022/12/08 04:03:37;;;;;;;5.13;1.70;;;;;;;5.22;51.04;100609.41;7392019;19;20027;-62
2022/12/08 04:06:03;;;;;;;4.32;1.60;;;;;;;5.33;50.67;100608.88;7392477;19;19998;-62
2022/12/08 04:08:28;;;;;;;5.03;1.67;;;;;;;5.06;51.00;100609.81;7394813;19;20276;-63
2022/12/08 04:10:54;;;;;;;8.23;2.03;;;;;;;5.07;51.22;100611.38;7393874;19;20466;-62
2022/12/08 04:13:20;;;;;;;8.18;2.00;;;;;;;5.18;51.01;100607.31;7392138;19;20002;-61
2022/12/08 04:15:47;;;;;;;4.65;1.48;;;;;;;5.15;50.94;100616.06;7392408;19;19999;-62
2022/12/08 04:18:13;;;;;;;5.25;1.48;;;;;;;5.10;51.07;100596.47;7392935;19;20036;-63
2022/12/08 04:20:40;;;;;;;4.78;1.58;;;;;;;5.19;50.74;100600.81;7393409;19;20012;-63
2022/12/08 04:23:07;;;;;;;3.85;1.50;;;;;;;5.05;51.08;100602.78;7391752;19;20086;-62
2022/12/08 04:25:34;;;;;;;4.93;1.30;;;;;;;5.02;51.30;100601.50;7393993;19;20013;-62
2022/12/08 04:28:00;;;;;;;4.20;1.67;;;;;;;5.15;50.77;100594.41;7393005;19;20011;-62
2022/12/08 04:30:26;;;;;;;3.40;1.42;;;;;;;5.23;50.51;100600.19;7393618;19;19998;-63
2022/12/08 04:32:51;;;;;;;2.38;1.50;;;;;;;5.12;50.84;100600.47;7391398;19;20525;-62
2022/12/08 04:35:17;;;;;;;5.05;1.50;;;;;;;5.13;50.75;100601.25;7391890;19;19995;-62
2022/12/08 04:37:43;;;;;;;3.00;1.50;;;;;;;5.18;50.65;100603.84;7390718;19;20015;-61
2022/12/08 04:40:10;;;;;;;4.65;1.55;;;;;;;5.00;51.08;100594.81;7391798;19;19998;-62
2022/12/08 04:42:36;;;;;;;4.38;1.42;;;;;;;5.06;50.94;100598.19;7392665;19;20010;-62
2022/12/08 04:45:03;;;;;;;5.10;1.70;;;;;;;5.10;50.99;100583.72;7390196;19;20002;-63
2022/12/08 04:47:29;;;;;;;5.82;1.60;;;;;;;5.15;50.79;100589.00;7392794;19;20022;-62
2022/12/08 04:49:54;;;;;;;6.35;1.77;;;;;;;5.05;50.94;100591.97;7392052;19;20002;-62
2022/12/08 04:52:20;;;;;;;4.25;1.40;;;;;;;5.04;51.00;100593.09;7392580;19;20013;-61
2022/12/08 04:54:46;;;;;;;4.40;1.30;;;;;;;5.06;51.06;100596.28;7391482;19;20074;-62
2022/12/08 04:57:11;;;;;;;3.45;1.40;;;;;;;5.13;50.77;100603.97;7389607;19;20021;-62
2022/12/08 04:59:37;;;;;;;5.00;1.60;;;;;;;5.18;50.83;100593.00;7392065;19;20354;-61
2022/12/08 05:02:03;;;;;;;4.53;1.45;;;;;;;5.19;50.65;100590.00;7392609;19;20018;-62
2022/12/08 05:04:29;;;;;;;3.72;1.30;;;;;;;5.12;50.65;100595.06;7391155;19;20352;-61
2022/12/08 05:06:55;;;;;;;3.42;1.60;;;;;;;5.13;50.91;100579.59;7388316;19;19995;-61
2022/12/08 05:09:21;;;;;;;3.95;1.50;;;;;;;5.19;50.72;100578.38;7390116;19;20013;-62
2022/12/08 05:11:46;;;;;;;4.18;1.30;;;;;;;5.01;51.11;100580.19;7388065;19;20098;-63
2022/12/08 05:14:14;;;;;;;3.97;1.50;;;;;;;5.11;50.89;100582.63;7390581;19;20002;-62
2022/12/08 05:16:41;;;;;;;5.38;1.50;;;;;;;5.10;50.86;100582.94;7389946;19;20010;-63
2022/12/08 05:19:06;;;;;;;4.40;1.40;;;;;;;5.09;50.87;100578.63;7391963;19;20010;-62
2022/12/08 05:21:32;;;;;;;4.43;1.67;;;;;;;5.11;51.21;100571.81;7391680;19;20003;-61
2022/12/08 05:24:05;;;;;;;6.15;1.95;;;;;;;5.10;50.79;100577.53;7390283;19;20013;-62
2022/12/08 05:26:31;;;;;;;5.22;1.63;;;;;;;5.10;51.05;100578.31;7389526;19;20335;-62
2022/12/08 05:28:56;;;;;;;3.97;1.65;;;;;;;5.12;50.84;100573.41;7389762;19;19999;-62
2022/12/08 05:31:22;;;;;;;3.30;1.42;;;;;;;5.21;50.87;100576.16;7388857;19;20056;-62
2022/12/08 05:33:49;;;;;;;3.72;1.70;;;;;;;5.21;50.60;100568.03;7389456;19;19999;-63
2022/12/08 05:36:15;;;;;;;4.80;1.42;;;;;;;5.25;50.58;100565.50;7389763;19;20015;-62
2022/12/08 05:38:42;;;;;;;3.35;1.48;;;;;;;5.26;50.62;100556.28;7390762;19;20334;-62
2022/12/08 05:41:12;;;;;;;4.32;1.85;;;;;;;5.32;50.48;100568.59;7392028;19;20007;-62
2022/12/08 05:43:37;;;;;;;4.78;1.90;;;;;;;5.26;50.56;100567.91;7388760;19;20010;-62
2022/12/08 05:46:03;;;;;;;5.00;1.95;;;;;;;5.19;50.74;100572.97;7390458;19;20339;-61
2022/12/08 05:48:29;;;;;;;4.15;2.00;;;;;;;5.33;50.39;100581.03;7390569;19;19995;-61
2022/12/08 05:50:55;;;;;;;4.38;1.85;;;;;;;5.29;50.57;100582.72;7390692;19;20078;-62
2022/12/08 05:53:21;;;;;;;3.60;1.33;;;;;;;5.22;50.68;100588.56;7388896;19;20006;-61
2022/12/08 05:55:46;;;;;;;4.15;1.73;;;;;;;5.09;51.06;100574.03;7389180;19;20014;-61
2022/12/08 05:58:15;;;;;;;5.72;2.08;;;;;;;4.99;51.23;100575.06;7395496;19;20066;-61
2022/12/08 06:00:41;;;;;;;5.78;2.10;;;;;;;5.13;51.09;100577.69;7399055;19;20003;-61
2022/12/08 06:03:09;;;;;;;6.13;2.00;;;;;;;5.27;50.75;100568.69;7396019;19;20003;-61
2022/12/08 06:05:35;;;;;;;5.60;1.85;;;;;;;5.20;50.70;100571.84;7396852;19;20350;-62
2022/12/08 06:08:01;;;;;;;5.82;2.00;;;;;;;5.15;50.99;100574.69;7398179;19;20024;-62
2022/12/08 06:10:27;;;;;;;3.83;1.80;;;;;;;5.32;50.51;100574.81;7397685;19;20068;-62
2022/12/08 06:12:53;;;;;;;4.70;1.98;;;;;;;5.18;50.66;100572.16;7396228;19;20007;-63
2022/12/08 06:15:18;;;;;;;2.05;1.50;;;;;;;5.14;50.67;100583.91;7395915;19;20596;-61
2022/12/08 06:17:44;;;;;;;2.97;1.63;;;;;;;5.16;50.67;100573.59;7397819;19;20055;-63
2022/12/08 06:20:10;;;;;;;2.40;1.50;;;;;;;5.18;50.55;100579.47;7396756;19;20003;-63
2022/12/08 06:22:36;;;;;;;3.92;1.58;;;;;;;5.13;50.73;100580.41;7396685;19;20011;-62
2022/12/08 06:25:02;;;;;;;5.53;1.90;;;;;;;4.98;51.10;100575.38;7396083;19;20007;-63
2022/12/08 06:27:28;;;;;;;3.58;1.75;;;;;;;5.15;50.55;100570.06;7397431;19;20026;-63
2022/12/08 06:29:53;;;;;;;4.32;1.70;;;;;;;5.08;50.80;100580.53;7397509;19;20006;-63
2022/12/08 06:32:19;;;;;;;5.20;1.80;;;;;;;5.09;50.71;100571.31;7395840;19;20495;-62
2022/12/08 06:34:45;;;;;;;3.95;1.95;;;;;;;5.06;50.85;100568.44;7396446;19;20002;-63
2022/12/08 06:37:11;;;;;;;2.58;1.70;;;;;;;5.07;50.58;100578.91;7393532;19;20354;-61
2022/12/08 06:39:36;;;;;;;2.22;1.50;;;;;;;5.11;50.38;100566.38;7397189;19;20017;-62
2022/12/08 06:44:46;;;;;;;;;;;;;;;5.04;50.56;100552.50;7396614;19;19998;-62
2022/12/08 06:47:12;;;;;;;4.28;1.45;;;;;;;5.04;50.56;100539.00;7396474;19;20619;-62
2022/12/08 06:49:38;;;;;;;2.47;1.42;;;;;;;5.09;50.49;100530.72;7397141;19;20470;-62
2022/12/08 06:52:03;;;;;;;3.45;1.80;;;;;;;5.08;50.60;100522.94;7394324;19;20002;-62
2022/12/08 06:54:29;;;;;;;7.13;1.90;;;;;;;4.95;50.85;100527.31;7395845;19;20068;-62
2022/12/08 06:56:55;;;;;;;3.30;1.75;;;;;;;5.08;50.39;100529.13;7391260;19;19994;-63
2022/12/08 06:59:21;;;;;;;3.28;1.50;;;;;;;5.04;50.20;100547.09;7397250;19;20077;-63
2022/12/08 07:01:46;;;;;;;3.25;1.60;;;;;;;5.04;50.37;100560.63;7396209;19;20006;-64
2022/12/08 07:04:12;;;;;;;4.10;1.50;;;;;;;4.89;50.67;100574.50;7395866;19;19994;-61
2022/12/08 07:06:38;;;;;;;5.38;1.88;;;;;;;5.04;50.38;100587.69;7395379;19;19994;-61
2022/12/08 07:09:03;;;;;;;5.60;1.75;;;;;;;5.06;50.42;100596.28;7394406;19;20041;-62
2022/12/08 07:11:29;;;;;;;3.35;1.55;;;;;;;4.96;50.63;100593.81;7393941;19;20021;-62
2022/12/08 07:13:56;;;;;;;2.08;1.48;;;;;;;5.01;50.56;100596.41;7390403;19;20007;-61
2022/12/08 07:16:22;;;;;;;4.18;1.92;;;;;;;4.93;50.68;100597.94;7392721;19;20122;-61
2022/12/08 07:18:48;;;;;;;2.40;1.58;;;;;;;4.97;50.57;100593.53;7395377;19;20450;-60
2022/12/08 07:21:15;;;;;;;5.03;1.63;;;;;;;4.97;50.68;100601.63;7393866;19;19995;-62
2022/12/08 07:23:41;;;;;;;3.50;1.88;;;;;;;5.04;50.34;100611.22;7392766;19;20022;-61
2022/12/08 07:26:09;;;;;;;3.13;1.67;;;;;;;4.92;50.78;100603.66;7394970;19;19998;-62
2022/12/08 07:28:38;;;;;;;4.40;1.77;;;;;;;4.97;50.72;100603.53;7394787;19;19998;-61
2022/12/08 07:31:05;;;;;;;3.33;1.95;;;;;;;4.82;50.83;100607.38;7395697;19;20059;-62
2022/12/08 07:33:31;;;;;;;8.50;3.08;;;;;;;4.91;50.71;100612.88;7393516;19;20021;-62
2022/12/08 07:36:00;;;;;;;7.88;3.65;;;;;;;4.89;50.62;100609.66;7392463;19;20025;-62
2022/12/08 07:38:25;;;;;;;11.00;5.38;;;;;;;4.92;50.32;100606.34;7393997;19;20002;-62
2022/12/08 07:40:51;;;;;;;10.63;5.63;;;;;;;4.87;50.51;100603.78;7393819;19;20028;-61
2022/12/08 07:43:18;;;;;;;8.20;4.18;;;;;;;4.69;50.83;100605.53;7393982;19;20002;-61
2022/12/08 07:45:43;;;;;;;14.82;7.28;;;;;;;4.74;50.81;100600.00;7393540;19;19998;-61
2022/12/08 07:48:09;;;;;;;19.55;9.48;;;;;;;4.76;50.75;100604.03;7395454;19;20318;-61
2022/12/08 07:50:35;;;;;;;27.08;12.90;;;;;;;4.86;50.42;100605.69;7394074;19;20022;-61
2022/12/08 07:53:01;;;;;;;24.83;14.43;;;;;;;4.82;50.42;100613.63;7393056;19;19998;-61
2022/12/08 07:55:27;;;;;;;24.77;14.50;;;;;;;4.78;50.66;100609.91;7392599;19;19995;-62
2022/12/08 07:57:53;;;;;;;29.50;18.83;;;;;;;4.82;50.26;100605.50;7394123;19;20340;-62
2022/12/08 08:00:19;;;;;;;28.75;16.98;;;;;;;4.68;50.64;100607.44;7394246;19;19991;-60
2022/12/08 08:02:45;;;;;;;33.83;21.55;;;;;;;4.75;50.49;100613.22;7393110;19;20009;-61
2022/12/08 08:05:11;;;;;;;45.28;30.63;;;;;;;4.64;50.71;100609.19;7393750;19;19999;-61
2022/12/08 08:07:42;;;;;;;47.53;33.88;;;;;;;4.63;50.56;100613.78;7394160;19;20002;-62
2022/12/08 08:10:09;;;;;;;53.00;34.92;;;;;;;4.69;50.49;100614.47;7394087;19;20006;-60
2022/12/08 08:12:36;;;;;;;50.03;34.42;;;;;;;4.72;50.19;100611.16;7392489;19;20002;-61
2022/12/08 08:15:06;;;;;;;36.42;25.20;;;;;;;4.77;50.39;100602.94;7393615;19;20078;-61
2022/12/08 08:17:33;;;;;;;22.17;14.73;;;;;;;4.83;50.27;100611.72;7393349;19;19995;-60
2022/12/08 08:19:59;;;;;;;13.23;8.30;;;;;;;4.79;50.21;100606.13;7392067;19;20006;-62
2022/12/08 08:22:25;;;;;;;14.18;8.43;;;;;;;4.67;50.44;100610.47;7392497;19;20022;-61
2022/12/08 08:24:52;;;;;;;11.88;4.80;;;;;;;4.78;50.31;100617.25;7392247;19;20002;-61
2022/12/08 08:27:18;;;;;;;9.55;4.43;;;;;;;4.81;50.07;100624.75;7393901;19;20017;-61
2022/12/08 08:29:44;;;;;;;20.27;11.07;;;;;;;4.91;49.96;100624.50;7392794;19;19998;-61
2022/12/08 08:32:10;;;;;;;24.55;14.18;;;;;;;4.98;49.74;100622.16;7391672;19;20442;-60
2022/12/08 08:34:35;;;;;;;20.73;13.00;;;;;;;4.92;49.72;100628.00;7391375;19;20005;-61
2022/12/08 08:37:01;;;;;;;23.10;14.50;;;;;;;4.88;50.09;100632.44;7390684;19;20347;-63
2022/12/08 08:39:29;;;;;;;11.00;6.03;;;;;;;4.97;49.86;100638.69;7390991;19;20006;-61
2022/12/08 08:41:54;;;;;;;6.93;3.83;;;;;;;4.95;49.71;100639.00;7392780;19;20003;-62
2022/12/08 08:44:20;;;;;;;4.38;1.95;;;;;;;4.99;49.56;100636.50;7392368;19;20006;-62
2022/12/08 08:46:46;;;;;;;5.05;1.73;;;;;;;4.57;50.52;100638.53;7391986;19;20086;-62
2022/12/08 08:49:12;;;;;;;4.60;1.88;;;;;;;4.64;50.43;100638.91;7392740;19;20030;-62
2022/12/08 08:51:37;;;;;;;2.35;1.40;;;;;;;4.59;50.50;100647.16;7392685;19;20045;-62
2022/12/08 08:54:03;;;;;;;5.47;1.85;;;;;;;4.70;50.23;100648.50;7390603;19;20006;-62
2022/12/08 08:56:29;;;;;;;3.67;1.60;;;;;;;4.67;50.21;100654.50;7390913;19;20382;-62
2022/12/08 08:58:55;;;;;;;6.30;1.77;;;;;;;4.86;49.59;100653.59;7392299;19;20006;-62
2022/12/08 09:01:24;;;;;;;4.05;1.98;;;;;;;4.86;49.41;100654.38;7392198;19;20024;-62
2022/12/08 09:03:50;;;;;;;2.63;1.60;;;;;;;4.85;49.56;100655.47;7391044;19;20003;-63
2022/12/08 09:06:17;;;;;;;5.45;2.55;;;;;;;4.96;49.23;100654.13;7391325;19;20007;-62
2022/12/08 09:08:43;;;;;;;6.40;2.70;;;;;;;4.98;49.05;100648.41;7392494;19;20018;-63
2022/12/08 09:11:10;;;;;;;5.40;2.47;;;;;;;4.96;49.14;100651.44;7391678;19;20007;-63
2022/12/08 09:13:35;;;;;;;5.85;2.80;;;;;;;5.04;48.79;100652.59;7391042;19;20006;-62
2022/12/08 09:16:03;;;;;;;7.15;3.50;;;;;;;5.09;48.74;100652.47;7390148;19;19999;-62
2022/12/08 09:18:29;;;;;;;6.47;2.50;;;;;;;5.08;48.74;100650.09;7392013;19;20017;-61
2022/12/08 09:20:55;;;;;;;6.50;2.67;;;;;;;4.93;49.01;100656.66;7390578;19;20010;-61
2022/12/08 09:23:21;;;;;;;4.15;1.80;;;;;;;4.80;49.38;100655.59;7390367;19;20010;-62
2022/12/08 09:25:46;;;;;;;2.58;1.50;;;;;;;4.89;49.25;100659.16;7391998;19;20021;-62
2022/12/08 09:28:13;;;;;;;4.95;1.70;;;;;;;4.84;49.26;100653.88;7391246;19;20367;-62
2022/12/08 09:30:39;;;;;;;2.58;1.50;;;;;;;4.90;49.26;100652.63;7391024;19;20012;-62
2022/12/08 09:33:05;;;;;;;3.97;1.67;;;;;;;5.00;48.84;100663.22;7390278;19;20031;-61
2022/12/08 09:35:31;;;;;;;4.45;2.00;;;;;;;5.02;48.99;100655.63;7390343;19;20362;-61
2022/12/08 09:37:57;;;;;;;5.13;1.90;;;;;;;5.04;48.83;100663.44;7388693;19;20023;-62
2022/12/08 09:40:25;;;;;;;5.22;1.63;;;;;;;5.05;48.88;100662.31;7391094;19;19994;-61
2022/12/08 09:43:09;;;;;;;3.95;1.95;;;;;;;5.08;48.75;100658.19;7389673;19;20037;-62
2022/12/08 09:45:35;;;;;;;4.75;1.67;;;;;;;5.10;48.85;100666.81;7390175;19;20003;-61
2022/12/08 09:48:10;;;;;;;5.22;1.70;;;;;;;5.16;48.68;100660.97;7390872;19;20133;-63
2022/12/08 09:50:42;;;;;;;3.58;1.33;;;;;;;5.34;48.42;100671.91;7390846;19;20010;-61
2022/12/08 09:53:20;;;;;;;2.53;1.50;;;;;;;5.28;48.62;100662.31;7389440;19;20020;-63
2022/12/08 09:55:52;;;;;;;3.72;1.60;;;;;;;5.33;48.48;100656.81;7389536;19;20066;-61
2022/12/08 09:58:52;;;;;;;5.25;1.63;;;;;;;5.43;48.49;100655.75;7390258;19;20086;-62
2022/12/08 10:01:20;;;;;;;4.78;1.85;;;;;;;5.31;48.65;100657.09;7391039;19;20015;-61
2022/12/08 10:03:46;;;;;;;4.95;1.85;;;;;;;5.28;48.78;100656.91;7388114;19;19994;-62
2022/12/08 10:06:23;;;;;;;5.20;1.77;;;;;;;5.28;48.79;100662.31;7390138;19;19999;-62
2022/12/08 10:09:14;;;;;;;4.20;1.75;;;;;;;5.23;48.79;100654.31;7389958;19;20024;-62
2022/12/08 10:11:54;;;;;;;4.32;1.60;;;;;;;5.23;48.83;100660.53;7388650;19;20054;-61
2022/12/08 10:14:32;;;;;;;4.00;1.73;;;;;;;5.14;49.03;100657.78;7389556;19;20476;-62
2022/12/08 10:17:05;;;;;;;3.92;1.50;;;;;;;5.31;48.96;100667.91;7388520;19;19999;-62
2022/12/08 10:19:33;;;;;;;4.97;1.60;;;;;;;5.44;48.55;100660.88;7389831;19;20029;-62
2022/12/08 10:21:59;;;;;;;3.17;1.50;;;;;;;5.34;48.88;100658.38;7389520;19;20005;-63
2022/12/08 10:24:40;;;;;;;5.28;1.40;;;;;;;5.43;48.79;100667.38;7390706;19;19987;-62
2022/12/08 10:27:11;;;;;;;4.53;1.65;;;;;;;5.50;48.60;100662.31;7388728;19;20006;-63
2022/12/08 10:29:38;;;;;;;3.10;1.60;;;;;;;5.20;49.10;100656.50;7390701;19;19995;-62
2022/12/08 10:32:21;;;;;;;4.00;1.50;;;;;;;5.24;49.22;100656.72;7388797;19;20102;-62
2022/12/08 10:35:04;;;;;;;3.78;1.40;;;;;;;5.27;48.96;100666.91;7389628;19;19998;-62
2022/12/08 10:37:30;;;;;;;4.28;1.50;;;;;;;5.28;49.02;100656.91;7387437;19;20074;-62
2022/12/08 10:40:16;;;;;;;5.72;1.50;;;;;;;5.43;48.71;100651.13;7389760;19;20458;-62
2022/12/08 10:42:49;;;;;;;3.42;1.50;;;;;;;5.49;48.66;100649.09;7388598;19;20029;-63
2022/12/08 10:45:22;;;;;;;6.07;2.10;;;;;;;5.69;48.39;100648.56;7395016;19;20013;-63
2022/12/08 10:47:59;;;;;;;3.63;1.30;;;;;;;5.71;48.46;100648.25;7396159;19;20018;-62
2022/12/08 10:50:46;;;;;;;6.70;1.65;;;;;;;5.43;48.79;100645.72;7397337;19;20021;-62
2022/12/08 10:53:19;;;;;;;3.13;1.55;;;;;;;5.54;48.63;100649.75;7394926;19;19995;-61
2022/12/08 10:55:50;;;;;;;4.45;1.65;;;;;;;5.62;48.49;100655.53;7395221;19;19999;-62
2022/12/08 10:58:35;;;;;;;4.00;1.77;;;;;;;5.65;48.59;100663.03;7396027;19;20010;-62
2022/12/08 11:01:08;;;;;;;5.65;1.80;;;;;;;5.59;48.79;100650.72;7396063;19;20011;-62
2022/12/08 11:03:42;;;;;;;3.15;1.67;;;;;;;5.66;48.64;100648.38;7393474;19;20003;-62
2022/12/08 11:06:13;;;;;;;6.68;1.98;;;;;;;5.84;48.19;100654.66;7395677;19;20025;-62
2022/12/08 11:08:51;;;;;;;5.47;2.08;;;;;;;5.93;47.68;100650.88;7395876;19;20014;-63
2022/12/08 11:11:19;;;;;;;5.15;2.17;;;;;;;5.91;48.14;100646.91;7396509;19;20010;-62
2022/12/08 11:13:48;;;;;;;5.63;1.98;;;;;;;5.92;48.19;100654.69;7393882;19;20054;-62
2022/12/08 11:16:16;;;;;;;4.70;2.25;;;;;;;5.96;47.97;100645.94;7392899;19;19999;-63
2022/12/08 11:18:53;;;;;;;7.15;2.00;;;;;;;6.08;47.66;100654.28;7395242;19;20003;-60
2022/12/08 11:21:19;;;;;;;6.65;1.70;;;;;;;5.95;47.87;100650.56;7395928;19;20010;-61
2022/12/08 11:23:54;;;;;;;7.35;1.80;;;;;;;5.93;48.00;100658.22;7393654;19;20331;-62
2022/12/08 11:26:31;;;;;;;6.72;1.50;;;;;;;5.78;48.00;100645.91;7394721;19;20029;-62
2022/12/08 11:28:57;;;;;;;6.88;1.67;;;;;;;5.73;48.27;100646.81;7393748;19;20002;-62
2022/12/08 11:31:48;;;;;;;3.83;1.60;;;;;;;5.71;48.41;100643.63;7395270;19;20010;-62
2022/12/08 11:34:33;;;;;;;5.88;2.08;;;;;;;5.61;48.55;100640.38;7394904;19;20002;-62
2022/12/08 11:36:58;;;;;;;;;;;;;;;5.65;48.43;100635.97;7393039;19;20122;-62
2022/12/08 11:39:30;;;;;;;6.15;1.85;;;;;;;5.74;48.35;100631.34;7394689;19;20252;-62
2022/12/08 11:41:57;;;;;;;3.92;1.63;;;;;;;5.69;48.46;100637.75;7391340;19;20358;-63
2022/12/08 11:44:34;;;;;;;3.78;1.60;;;;;;;5.77;48.34;100632.66;7394315;19;19998;-67
2022/12/08 11:47:17;;;;;;;5.30;1.45;;;;;;;5.78;48.23;100639.69;7393493;19;19999;-67
2022/12/08 11:49:44;;;;;;;4.13;1.80;;;;;;;5.71;48.69;100632.00;7393619;19;20201;-67